• Join FlightAware (Why Join?)
  • Login
  • US Flag 
01:50AM EST


 

Airport Tracker/Info


-or-


 

Live Flight TrackerFlight Track Log ✈ EJA922 ✈ 20-Jul-2013 ✈ KMCO - TJSJ / SJU

Flight Track Log - Related Links

Times and Time Zones

All times are in EDT time to prevent confusion due to time zone crossing. See the EJA922 flight status page for this flight to view local times or setup timezone preferences in your user account.

Time Position Orientation Groundspeed Altitude Reporting Facility
EDT Latitude Longitude Course Direction KTS MPH feet Rate Location/Type
04:33PM 28.4167 -81.3333 199° South 176 203 800  Level Orlando TRACON
04:34PM 28.3333 -81.3667 199° South 211 243 5,100 3,420 Climbing Orlando TRACON
04:36PM 28.2033 -81.4175 199° South 231 266 13,500 3,180 Climbing Miami Center
04:37PM 28.1253 -81.4425 196° South 247 284 15,400 1,620 Climbing Miami Center
04:38PM 28.0300 -81.4197 168° South 317 365 16,800 1,500 Climbing Miami Center
04:39PM 27.9644 -81.3139 125° Southeast 317 365 18,400 1,500 Climbing Miami Center
04:40PM 27.9069 -81.2131 123° Southeast 363 418 19,800 1,500 Climbing Miami Center
04:41PM 27.8378 -81.0881 122° Southeast 418 481 21,500 1,800 Climbing Miami Center
04:42PM 27.7739 -80.9803 124° Southeast 424 488 23,500 1,860 Climbing Miami Center
04:43PM 27.7122 -80.8772 124° Southeast 424 488 25,300 1,320 Climbing Miami Center
04:44PM 27.6544 -80.7814 124° Southeast 412 474 26,200 1,020 Climbing Miami Center
04:45PM 27.5886 -80.6644 122° Southeast 418 481 27,400 1,080 Climbing Miami Center
04:46PM 27.5206 -80.5472 123° Southeast 437 503 28,400 1,020 Climbing Miami Center
04:47PM 27.4506 -80.4281 123° Southeast 448 516 29,500 1,080 Climbing Miami Center
04:48PM 27.3783 -80.3067 124° Southeast 454 522 30,600 720 Climbing Miami Center
04:49PM 27.3061 -80.1853 124° Southeast 459 528 31,000 180 Climbing Miami Center
04:50PM 27.2317 -80.0569 123° Southeast 477 549 31,000  Level Miami Center
04:51PM 27.1550 -79.9311 124° Southeast 482 555 31,000  Level Miami Center
04:52PM 27.0825 -79.8008 122° Southeast 487 560 31,000 480 Level Miami Center
04:53PM 27.0078 -79.6731 123° Southeast 492 566 32,000 1,140 Climbing Miami Center
04:54PM 26.9269 -79.5383 124° Southeast 484 557 33,300 1,140 Climbing Miami Center
04:55PM 26.8539 -79.4133 123° Southeast 479 551 34,300 960 Climbing Miami Center
04:56PM 26.7869 -79.3000 123° Southeast 479 551 35,300 1,080 Climbing Miami Center
04:57PM 26.7117 -79.1683 123° Southeast 490 564 36,500 1,260 Climbing Miami Center
04:58PM 26.6322 -79.0367 124° Southeast 496 571 37,900 1,320 Climbing Miami Center
04:59PM 26.5550 -78.9028 123° Southeast 502 578 39,200 1,320 Climbing Miami Center
05:00PM 26.4814 -78.7761 123° Southeast 507 583 40,600 900 Climbing Miami Center
05:01PM 26.3953 -78.6356 124° Southeast 502 578 41,000 180 Climbing Miami Center
05:02PM 26.3217 -78.5047 122° Southeast 497 572 41,000  Level Miami Center
05:03PM 26.2481 -78.3739 122° Southeast 503 579 41,000  Level Miami Center
05:04PM 26.1697 -78.2456 124° Southeast 503 579 41,000  Level Miami Center
05:05PM 26.0936 -78.1222 124° Southeast 503 579 41,000  Level Miami Center
05:06PM 26.0175 -77.9872 122° Southeast 503 579 41,000  Level Miami Center
05:07PM 25.9431 -77.8569 122° Southeast 503 579 41,000  Level Miami Center
05:08PM 25.8750 -77.7411 123° Southeast 503 579 41,000  Level Miami Center
05:09PM 25.7983 -77.6136 124° Southeast 503 579 41,000  Level Miami Center
05:10PM 25.7153 -77.4722 123° Southeast 497 572 41,000  Level Miami Center
05:11PM 25.6386 -77.3428 123° Southeast 497 572 41,000  Level Miami Center
05:12PM 25.5617 -77.2158 124° Southeast 502 578 41,000  Level Miami Center
05:13PM 25.4844 -77.0844 123° Southeast 502 578 41,000  Level Miami Center
05:14PM 25.4072 -76.9578 124° Southeast 502 578 41,000  Level Miami Center
05:15PM 25.3278 -76.8267 124° Southeast 502 578 41,000  Level Miami Center
05:16PM 25.2525 -76.7003 123° Southeast 502 578 41,000  Level Miami Center
05:17PM 25.1750 -76.5694 123° Southeast 502 578 41,000  Level Miami Center
05:18PM 25.0953 -76.4411 124° Southeast 502 578 41,000  Level Miami Center
05:19PM 25.0175 -76.3131 124° Southeast 502 578 41,000 600 Level Miami Center
05:20PM 24.9417 -76.1872 124° Southeast 502 578 42,200 1,080 Climbing Miami Center
05:21PM 24.8764 -76.0869 126° Southeast 502 578 43,200 840 Climbing Miami Center
05:22PM 24.7878 -75.9408 124° Southeast 497 572 43,900 600 Climbing Miami Center
05:23PM 24.7117 -75.8156 124° Southeast 491 565 44,400 480 Climbing Miami Center
05:24PM 24.6356 -75.6906 124° Southeast 491 565 44,900 300 Climbing Miami Center
05:25PM 24.5572 -75.5678 125° Southeast 491 565 45,000  Climbing Miami Center
05:26PM 24.4808 -75.4431 124° Southeast 491 565 45,000  Level Miami Center
05:27PM 24.4044 -75.3183 124° Southeast 491 565 45,000  Level Miami Center
05:28PM 24.3258 -75.1917 124° Southeast 491 565 45,000  Level Miami Center
05:29PM 24.2492 -75.0675 124° Southeast 491 565 45,000  Level Miami Center
05:30PM 24.1703 -74.9411 124° Southeast 491 565 45,000  Level Miami Center
05:31PM 24.0892 -74.8194 126° Southeast 486 559 45,000  Level Miami Center
05:32PM 24.0122 -74.6933 124° Southeast 486 559 45,000  Level Miami Center
05:33PM 23.9350 -74.5694 124° Southeast 486 559 45,000  Level Miami Center
05:34PM 23.8664 -74.4617 125° Southeast 486 559 45,000  Level Miami Center
05:35PM 23.7828 -74.3361 126° Southeast 493 567 45,000  Level Miami Center
05:36PM 23.7075 -74.2128 124° Southeast 493 567 45,000  Level Miami Center
05:37PM 23.6281 -74.0897 125° Southeast 493 567 45,000  Level Miami Center
05:38PM 23.5483 -73.9669 125° Southeast 493 567 45,000  Level Miami Center
05:39PM 23.4708 -73.8442 125° Southeast 493 567 45,000  Level Miami Center
05:40PM 23.3911 -73.7239 126° Southeast 487 560 45,000  Level Miami Center
05:41PM 23.3111 -73.5992 125° Southeast 492 566 45,000  Level Miami Center
05:42PM 23.2311 -73.4769 125° Southeast 492 566 45,000  Level Miami Center
05:43PM 23.1553 -73.3525 124° Southeast 492 566 45,000  Level Miami Center
05:44PM 23.0686 -73.2306 128° Southeast 492 566 45,000  Level Miami Center
05:45PM 22.9969 -73.1131 124° Southeast 487 560 45,000  Level Miami Center
05:46PM 22.9186 -72.9892 124° Southeast 487 560 45,000  Level Miami Center
05:47PM 22.8381 -72.8678 126° Southeast 492 566 45,000  Level Miami Center
05:48PM 22.7578 -72.7464 126° Southeast 492 566 45,000  Level Miami Center
05:49PM 22.6792 -72.6228 125° Southeast 492 566 45,000  Level Miami Center
05:50PM 22.6006 -72.5017 125° Southeast 492 566 45,000  Level Miami Center
05:51PM 22.5197 -72.3831 126° Southeast 487 560 45,000  Level Miami Center
05:52PM 22.4389 -72.2600 125° Southeast 492 566 45,000  Level Miami Center
05:53PM 22.3619 -72.1394 125° Southeast 492 566 45,000  Level Miami Center
05:54PM 22.2789 -72.0167 126° Southeast 492 566 45,000  Level Miami Center
05:55PM 22.1997 -71.8964 125° Southeast 492 566 45,000  Level Miami Center
05:56PM 22.1208 -71.7761 125° Southeast 492 566 45,000  Level Miami Center
05:57PM 22.0372 -71.6542 126° Southeast 492 566 45,000  Level Miami Center
05:58PM 21.9581 -71.5342 125° Southeast 492 566 45,000  Level Miami Center
05:59PM 21.8789 -71.4167 126° Southeast 487 560 45,000  Level Miami Center
06:00PM 21.7994 -71.2969 126° Southeast 492 566 45,000  Level Miami Center
06:01PM 21.7200 -71.1775 126° Southeast 492 566 45,000  Level Miami Center
06:02PM 21.6403 -71.0561 125° Southeast 492 566 45,000  Level Miami Center
06:03PM 21.5494 -70.9194 126° Southeast 497 572 45,000  Level Miami Center
06:04PM 21.4678 -70.8050 127° Southeast 497 572 45,000  Level Miami Center
06:05PM 21.3881 -70.6861 126° Southeast 497 572 45,000  Level Miami Center
06:06PM 21.3061 -70.5678 127° Southeast 487 560 45,000  Level Miami Center
06:07PM 21.2261 -70.4492 126° Southeast 487 560 45,000  Level Miami Center
06:08PM 21.1439 -70.3308 127° Southeast 492 566 45,000  Level Miami Center
06:09PM 21.0639 -70.2125 126° Southeast 492 566 45,000  Level Miami Center
06:10PM 20.9817 -70.0922 126° Southeast 492 566 45,000  Level Miami Center
06:11PM 20.8992 -69.9722 126° Southeast 492 566 45,000  Level Miami Center
06:12PM 20.8167 -69.8544 127° Southeast 492 566 45,000  Level Miami Center
06:13PM 20.7364 -69.7347 126° Southeast 492 566 45,000  Level Miami Center
06:14PM 20.6536 -69.6150 126° Southeast 497 572 45,000  Level Miami Center
06:15PM 20.5711 -69.4956 126° Southeast 497 572 45,000  Level Miami Center
06:16PM 20.4883 -69.3783 127° Southeast 502 578 45,000  Level Miami Center
06:17PM 20.4056 -69.2592 127° Southeast 502 578 45,000  Level Miami Center
06:18PM 20.3269 -69.1422 126° Southeast 502 578 45,000  Level Miami Center
06:19PM 20.2500 -69.0183 123° Southeast 502 578 45,000  Level Miami Center
06:20PM 20.1750 -68.8969 123° Southeast 502 578 45,000  Level Miami Center
06:21PM 20.1000 -68.7714 122° Southeast 497 572 45,000  Level Miami Center
06:22PM 20.0228 -68.6483 124° Southeast 497 572 45,000  Level Miami Center
06:23PM 19.9517 -68.5225 121° Southeast 497 572 45,000  Level Miami Center
06:24PM 19.8764 -68.4017 124° Southeast 497 572 45,000  Level Miami Center
06:25PM 19.8000 -68.3000 129° Southeast 500 575 45,000  Level San Juan Center
06:26PM 19.7333 -68.1667 118° Southeast 490 564 45,000  Level San Juan Center
06:27PM 19.6500 -68.0500 127° Southeast 490 564 45,000 -600 Level San Juan Center
06:28PM 19.5833 -67.9333 121° Southeast 490 564 43,800 -2,100 Descending San Juan Center
06:29PM 19.5000 -67.8000 124° Southeast 490 564 40,800 -3,120 Descending San Juan Center
06:30PM 19.4333 -67.6667 118° Southeast 500 575 37,600 -3,120 Descending San Juan Center
06:31PM 19.3500 -67.5500 127° Southeast 510 587 34,600 -3,180 Descending San Juan Center
06:32PM 19.2667 -67.4167 123° Southeast 520 598 31,300 -3,300 Descending San Juan Center
06:33PM 19.1833 -67.3000 127° Southeast 520 598 28,000 -3,180 Descending San Juan Center
06:34PM 19.1167 -67.1667 118° Southeast 500 575 24,900 -3,180 Descending San Juan Center
06:35PM 19.0333 -67.0500 127° Southeast 490 564 21,700 -2,940 Descending San Juan Center
06:36PM 18.9667 -66.9500 125° Southeast 450 518 19,100 -2,580 Descending San Juan Center
06:37PM 18.9000 -66.8333 121° Southeast 420 483 16,600 -2,580 Descending San Juan Center
06:38PM 18.8333 -66.7333 125° Southeast 410 472 14,000 -2,520 Descending San Juan Center
06:39PM 18.7667 -66.6500 130° Southeast 360 414 11,600 -1,800 Descending San Juan Center
06:40PM 18.7167 -66.5667 122° Southeast 310 357 10,400 -1,500 Descending San Juan Center
06:41PM 18.6833 -66.5000 118° Southeast 270 311 8,600 -1,740 Descending San Juan Center
06:42PM 18.6500 -66.4333 118° Southeast 270 311 6,900 -1,680 Descending San Juan Center
06:43PM 18.5833 -66.3833 145° Southeast 260 299 5,300 -1,320 Descending San Juan Center
06:44PM 18.5500 -66.3167 118° Southeast 250 288 4,300 -900 Descending San Juan Center
06:45PM 18.5000 -66.2833 148° Southeast 200 230 3,600 -840 Descending San Juan Center
06:46PM 18.4667 -66.2333 125° Southeast 180 207 2,700 -660 Descending San Juan Center
06:47PM 18.4333 -66.2000 137° Southeast 170 196 2,300 -240 Descending San Juan Center
06:48PM 18.4333 -66.1667 90° East 160 184 2,300 -60 Level San Juan Center
06:49PM 18.4333 -66.1167 90° East 120 138 2,200 -420 Descending San Juan Center
06:50PM 18.4333 -66.0833 90° East 110 127 1,500 -660 Descending San Juan Center
06:51PM 18.4333 -66.0500 90° East 110 127 900 -660 Descending San Juan Center
06:52PM 18.4333 -66.0167 90° East 110 127 200 -720 Descending San Juan Center